Time;durP1;ratioP1;P1;durP2;ratioP2;P2;SDS_P1;SDS_P2;PMS_P1;PMS_P2;Temp;Humidity;BMP_temperature;BMP_pressure;BME280_temperature;BME280_humidity;BME280_pressure;Samples;Min_cycle;Max_cycle;Signal;HPM_P1;HPM_P2
2020/12/04 00:02:19;;;;;;;19.83;10.30;;;2.20;99.90;;;;;;5058077;28;20198;-44
2020/12/04 00:04:44;;;;;;;17.57;9.27;;;2.20;99.90;;;;;;5064974;28;20191;-45
2020/12/04 00:07:10;;;;;;;17.53;9.73;;;2.20;99.90;;;;;;5083146;28;20675;-42
2020/12/04 00:09:36;;;;;;;15.13;9.53;;;2.20;99.90;;;;;;5085773;28;20216;-47
2020/12/04 00:12:01;;;;;;;20.10;10.03;;;2.20;99.90;;;;;;5066947;28;20213;-39
2020/12/04 00:14:27;;;;;;;19.40;9.97;;;2.20;99.90;;;;;;5082822;28;21025;-43
2020/12/04 00:16:52;;;;;;;16.63;10.03;;;2.20;99.90;;;;;;5079467;28;20197;-45
2020/12/04 00:19:17;;;;;;;16.83;10.43;;;2.20;99.90;;;;;;5059754;28;20250;-43
2020/12/04 00:21:43;;;;;;;15.90;8.77;;;2.20;99.90;;;;;;5068912;28;20217;-43
2020/12/04 00:24:08;;;;;;;19.50;9.77;;;2.10;99.90;;;;;;5085211;28;20177;-42
2020/12/04 00:26:38;;;;;;;19.00;10.20;;;2.20;99.90;;;;;;5071854;28;20634;-42
2020/12/04 00:29:05;;;;;;;19.17;10.50;;;2.10;99.90;;;;;;5064721;28;20177;-44
2020/12/04 00:31:30;;;;;;;15.97;9.87;;;2.10;99.90;;;;;;5061017;28;20206;-42
2020/12/04 00:33:56;;;;;;;18.47;10.87;;;2.10;99.90;;;;;;5063006;28;20400;-47
2020/12/04 00:36:21;;;;;;;18.03;9.90;;;2.10;99.90;;;;;;5074329;28;20225;-41
2020/12/04 00:38:46;;;;;;;15.80;9.20;;;2.10;99.90;;;;;;5081282;28;20247;-49
2020/12/04 00:41:12;;;;;;;24.17;11.27;;;2.10;99.90;;;;;;5069243;28;20190;-43
2020/12/04 00:43:37;;;;;;;17.40;9.63;;;2.10;99.90;;;;;;5059962;28;20185;-40
2020/12/04 00:46:03;;;;;;;20.60;10.47;;;2.10;99.90;;;;;;5077516;28;20687;-45
2020/12/04 00:48:28;;;;;;;15.60;9.63;;;2.10;99.90;;;;;;5081725;28;20170;-48
2020/12/04 00:50:54;;;;;;;16.37;9.03;;;2.10;99.90;;;;;;5070542;28;20202;-42
2020/12/04 00:53:19;;;;;;;16.20;9.43;;;2.10;99.90;;;;;;5084118;28;20189;-50
2020/12/04 00:55:45;;;;;;;16.13;9.60;;;2.10;99.90;;;;;;5076242;28;20182;-43
2020/12/04 00:58:10;;;;;;;16.63;9.27;;;2.00;99.90;;;;;;5060433;28;20190;-44
2020/12/04 01:00:35;;;;;;;13.83;8.77;;;2.00;99.90;;;;;;5059653;28;20213;-47
2020/12/04 01:03:01;;;;;;;17.03;9.17;;;2.00;99.90;;;;;;5063546;28;20378;-41
2020/12/04 01:05:26;;;;;;;17.43;9.23;;;2.00;99.90;;;;;;5056898;28;20211;-43
2020/12/04 01:07:52;;;;;;;13.97;9.00;;;2.00;99.90;;;;;;5075671;28;20829;-42
2020/12/04 01:10:17;;;;;;;18.57;9.83;;;1.90;99.90;;;;;;5084305;28;20163;-45
2020/12/04 01:12:45;;;;;;;18.03;9.30;;;1.90;99.90;;;;;;5079851;28;20199;-42
2020/12/04 01:15:10;;;;;;;18.73;10.53;;;1.90;99.90;;;;;;5069190;28;20216;-43
2020/12/04 01:17:36;;;;;;;20.20;10.07;;;1.90;99.90;;;;;;5059661;28;20692;-47
2020/12/04 01:20:03;;;;;;;17.00;10.10;;;1.80;99.90;;;;;;5063805;28;20303;-44
2020/12/04 01:22:31;;;;;;;18.70;10.37;;;1.80;99.90;;;;;;5066600;28;20681;-45
2020/12/04 01:24:56;;;;;;;16.03;9.10;;;1.80;99.90;;;;;;5091273;28;20177;-42
2020/12/04 01:27:22;;;;;;;18.73;10.00;;;1.80;99.90;;;;;;5065993;28;20287;-46
2020/12/04 01:29:48;;;;;;;17.33;9.23;;;1.70;99.90;;;;;;5059878;28;20820;-44
2020/12/04 01:32:13;;;;;;;18.83;10.10;;;1.70;99.90;;;;;;5063616;28;20566;-42
2020/12/04 01:34:39;;;;;;;19.03;10.87;;;1.70;99.90;;;;;;5056844;28;20190;-43
2020/12/04 01:37:04;;;;;;;15.90;8.67;;;1.70;99.90;;;;;;5071841;28;20623;-46
2020/12/04 01:39:30;;;;;;;18.87;10.43;;;1.70;99.90;;;;;;5068428;28;20201;-44
2020/12/04 01:41:55;;;;;;;18.27;9.43;;;1.60;99.90;;;;;;5062221;28;20201;-49
2020/12/04 01:44:21;;;;;;;17.30;9.83;;;1.60;99.90;;;;;;5060331;28;20169;-46
2020/12/04 01:46:50;;;;;;;17.00;9.43;;;1.60;99.90;;;;;;5059444;28;20226;-45
2020/12/04 01:49:16;;;;;;;19.50;10.10;;;1.60;99.90;;;;;;5059335;28;20169;-42
2020/12/04 01:51:42;;;;;;;16.53;9.20;;;1.50;99.90;;;;;;5063531;28;20235;-43
2020/12/04 01:54:08;;;;;;;17.10;9.77;;;1.50;99.90;;;;;;5054527;28;20217;-45
2020/12/04 01:56:39;;;;;;;17.17;9.73;;;1.50;99.90;;;;;;5069987;28;20657;-44
2020/12/04 01:59:05;;;;;;;16.50;9.43;;;1.40;99.90;;;;;;5060314;28;20276;-47
2020/12/04 02:01:33;;;;;;;21.27;10.10;;;1.40;99.90;;;;;;5056133;28;20244;-44
2020/12/04 02:03:58;;;;;;;17.77;10.13;;;1.40;99.90;;;;;;5060694;28;20685;-47
2020/12/04 02:06:50;;;;;;;18.63;10.50;;;1.30;99.90;;;;;;5056926;28;20244;-43
2020/12/04 02:09:25;;;;;;;18.57;9.63;;;1.30;99.90;;;;;;5059121;28;20192;-42
2020/12/04 02:11:54;;;;;;;18.90;10.10;;;1.30;99.90;;;;;;5075689;28;20715;-48
2020/12/04 02:14:20;;;;;;;15.50;9.07;;;1.30;99.90;;;;;;5059210;28;20169;-42
2020/12/04 02:16:46;;;;;;;17.17;9.67;;;1.20;99.90;;;;;;5062757;28;20245;-42
2020/12/04 02:19:12;;;;;;;16.33;9.30;;;1.30;99.90;;;;;;5074403;28;20183;-44
2020/12/04 02:21:39;;;;;;;16.23;9.50;;;1.20;99.90;;;;;;5081740;28;20280;-44
2020/12/04 02:24:05;;;;;;;16.63;9.30;;;1.20;99.90;;;;;;5066267;28;20200;-49
2020/12/04 02:26:33;;;;;;;16.87;9.83;;;1.20;99.90;;;;;;5093285;28;20366;-41
2020/12/04 02:29:02;;;;;;;19.83;10.13;;;1.10;99.90;;;;;;5075725;28;20176;-46
2020/12/04 02:31:27;;;;;;;18.37;10.43;;;1.10;99.90;;;;;;5081422;28;20172;-43
2020/12/04 02:33:53;;;;;;;17.90;9.53;;;1.10;99.90;;;;;;5082681;28;20255;-48
2020/12/04 02:36:18;;;;;;;17.63;10.03;;;1.00;99.90;;;;;;5072166;28;20254;-41
2020/12/04 02:38:44;;;;;;;19.23;10.47;;;1.00;99.90;;;;;;5062868;28;20599;-41
2020/12/04 02:41:09;;;;;;;18.27;9.73;;;1.00;99.90;;;;;;5064889;28;20199;-45
2020/12/04 02:43:35;;;;;;;16.30;10.17;;;1.00;99.90;;;;;;5065291;28;20822;-44
2020/12/04 02:46:02;;;;;;;18.83;9.63;;;0.90;99.90;;;;;;5059772;28;20219;-46
2020/12/04 02:48:27;;;;;;;20.90;10.17;;;0.90;99.90;;;;;;5061193;28;20166;-42
2020/12/04 02:50:53;;;;;;;20.90;10.77;;;0.90;99.90;;;;;;5062637;28;20231;-44
2020/12/04 02:53:18;;;;;;;18.27;10.17;;;0.90;99.90;;;;;;5072766;28;20192;-41
2020/12/04 02:55:44;;;;;;;21.03;10.13;;;0.90;99.90;;;;;;5083554;28;20556;-46
2020/12/04 02:58:09;;;;;;;15.03;8.63;;;0.90;99.90;;;;;;5082912;28;20185;-47
2020/12/04 03:00:35;;;;;;;18.33;10.30;;;0.90;99.90;;;;;;5077117;28;20269;-41
2020/12/04 03:03:00;;;;;;;17.87;10.07;;;0.80;99.90;;;;;;5060750;28;20198;-44
2020/12/04 03:05:25;;;;;;;19.13;10.20;;;0.80;99.90;;;;;;5060622;28;20954;-42
2020/12/04 03:07:51;;;;;;;24.17;11.27;;;0.80;99.90;;;;;;5063962;28;20410;-43
2020/12/04 03:10:16;;;;;;;23.93;10.50;;;0.80;99.90;;;;;;5050406;28;20200;-44
2020/12/04 03:12:42;;;;;;;20.10;11.17;;;0.70;99.90;;;;;;5075390;28;20217;-45
2020/12/04 03:15:08;;;;;;;20.70;10.67;;;0.80;99.90;;;;;;5063082;28;20203;-46
2020/12/04 03:17:34;;;;;;;20.03;10.87;;;0.70;99.90;;;;;;5079914;28;20189;-43
2020/12/04 03:20:00;;;;;;;21.37;11.93;;;0.70;99.90;;;;;;5084710;28;20185;-46
2020/12/04 03:22:25;;;;;;;18.83;10.50;;;0.70;99.90;;;;;;5071343;28;20224;-43
2020/12/04 03:24:52;;;;;;;20.47;10.70;;;0.70;99.90;;;;;;5065942;28;20635;-46
2020/12/04 03:27:18;;;;;;;24.37;11.23;;;0.70;99.90;;;;;;5061178;28;20290;-42
2020/12/04 03:29:43;;;;;;;21.07;10.53;;;0.70;99.90;;;;;;5086153;28;20259;-41
2020/12/04 03:32:09;;;;;;;20.40;10.67;;;0.60;99.90;;;;;;5081293;28;20300;-48
2020/12/04 03:34:35;;;;;;;22.67;10.63;;;0.70;99.90;;;;;;5064894;28;20197;-46
2020/12/04 03:37:00;;;;;;;22.70;10.40;;;0.70;99.90;;;;;;5063886;28;20706;-49
2020/12/04 03:39:27;;;;;;;20.83;10.40;;;0.70;99.90;;;;;;5063493;28;20195;-41
2020/12/04 03:41:52;;;;;;;19.10;9.37;;;0.70;99.90;;;;;;5067356;28;20246;-51
2020/12/04 03:44:18;;;;;;;20.20;9.47;;;0.70;99.90;;;;;;5105880;28;20222;-43
2020/12/04 03:46:45;;;;;;;19.77;10.67;;;0.60;99.90;;;;;;5102900;28;20293;-51
2020/12/04 03:49:13;;;;;;;17.90;8.80;;;0.60;99.90;;;;;;5103938;28;20239;-41
2020/12/04 03:51:39;;;;;;;21.37;10.63;;;0.60;99.90;;;;;;5104107;28;20204;-46
2020/12/04 03:54:05;;;;;;;22.30;10.87;;;0.60;99.90;;;;;;5092089;28;20233;-41
2020/12/04 03:56:31;;;;;;;17.77;10.43;;;0.60;99.90;;;;;;5074198;28;20695;-41
2020/12/04 03:58:56;;;;;;;18.60;8.90;;;0.60;99.90;;;;;;5071750;28;20921;-41
2020/12/04 04:01:21;;;;;;;22.10;11.17;;;0.60;99.90;;;;;;5089548;28;20556;-47
2020/12/04 04:03:47;;;;;;;20.00;11.37;;;0.60;99.90;;;;;;5062381;28;20217;-44
2020/12/04 04:06:13;;;;;;;19.10;9.77;;;0.60;99.90;;;;;;5063847;28;20208;-41
2020/12/04 04:08:38;;;;;;;21.50;10.97;;;0.60;99.90;;;;;;5062306;28;20212;-44
2020/12/04 04:11:03;;;;;;;18.60;10.63;;;0.60;99.90;;;;;;5061773;28;20164;-43
2020/12/04 04:13:29;;;;;;;17.73;10.13;;;0.60;99.90;;;;;;5064646;28;20192;-42
2020/12/04 04:15:55;;;;;;;19.87;9.83;;;0.60;99.90;;;;;;5061455;28;20266;-42
2020/12/04 04:18:20;;;;;;;17.27;9.33;;;0.60;99.90;;;;;;5067944;28;20195;-47
2020/12/04 04:20:46;;;;;;;15.80;9.03;;;0.60;99.90;;;;;;5089805;28;20312;-47
2020/12/04 04:23:13;;;;;;;27.37;11.90;;;0.60;99.90;;;;;;5069518;28;20503;-45
2020/12/04 04:25:38;;;;;;;18.73;10.20;;;0.60;99.90;;;;;;5061317;28;20214;-44
2020/12/04 04:28:10;;;;;;;21.73;10.27;;;0.60;99.90;;;;;;5067031;28;20179;-43
2020/12/04 04:30:36;;;;;;;15.70;9.47;;;0.60;99.90;;;;;;5068867;28;20185;-42
2020/12/04 04:33:01;;;;;;;18.03;9.60;;;0.60;99.90;;;;;;5085267;28;20630;-41
2020/12/04 04:35:27;;;;;;;16.63;9.97;;;0.60;99.90;;;;;;5071398;28;20183;-47
2020/12/04 04:37:52;;;;;;;14.70;8.03;;;0.60;99.90;;;;;;5084011;28;20176;-43
2020/12/04 04:40:17;;;;;;;19.90;10.93;;;0.50;99.90;;;;;;5083545;28;20183;-48
2020/12/04 04:42:43;;;;;;;20.97;11.00;;;0.50;99.90;;;;;;5082186;28;20241;-41
2020/12/04 04:45:08;;;;;;;17.87;9.67;;;0.60;99.90;;;;;;5083489;28;20203;-46
2020/12/04 04:47:39;;;;;;;16.53;9.70;;;0.50;99.90;;;;;;5085068;28;20349;-41
2020/12/04 04:50:04;;;;;;;16.50;9.60;;;0.60;99.90;;;;;;5099269;28;20193;-44
2020/12/04 04:52:32;;;;;;;21.47;11.07;;;0.60;99.90;;;;;;5080099;28;20195;-43
2020/12/04 04:54:57;;;;;;;19.00;10.37;;;0.60;99.90;;;;;;5084792;28;20643;-41
2020/12/04 04:57:24;;;;;;;20.60;8.87;;;0.60;99.90;;;;;;5076424;28;20194;-51
2020/12/04 04:59:51;;;;;;;16.33;9.37;;;0.60;99.90;;;;;;5063427;28;20892;-39
2020/12/04 05:02:16;;;;;;;20.03;10.67;;;0.60;99.90;;;;;;5064379;28;20702;-49
2020/12/04 05:04:51;;;;;;;18.03;9.43;;;0.60;99.90;;;;;;5082831;28;20178;-40
2020/12/04 05:07:24;;;;;;;18.47;9.30;;;0.60;99.90;;;;;;5070621;28;20196;-47
2020/12/04 05:09:51;;;;;;;18.20;10.27;;;0.60;99.90;;;;;;5061612;28;20865;-43
2020/12/04 05:12:17;;;;;;;18.43;9.47;;;0.60;99.90;;;;;;5062418;28;20198;-49
2020/12/04 05:14:42;;;;;;;16.67;8.67;;;0.70;99.90;;;;;;5061399;28;20175;-44
2020/12/04 05:17:11;;;;;;;17.33;9.77;;;0.60;99.90;;;;;;5077521;28;20677;-40
2020/12/04 05:19:38;;;;;;;17.33;9.60;;;0.70;99.90;;;;;;5079033;28;20272;-42
2020/12/04 05:22:14;;;;;;;15.80;10.07;;;0.70;99.90;;;;;;5058952;28;20268;-40
2020/12/04 05:24:41;;;;;;;15.93;8.70;;;0.70;99.90;;;;;;5059372;28;20179;-45
2020/12/04 05:27:27;;;;;;;15.90;9.60;;;0.70;99.90;;;;;;5076520;28;20282;-41
2020/12/04 05:29:54;;;;;;;16.13;8.43;;;0.70;99.90;;;;;;5063868;28;20178;-40
2020/12/04 05:32:19;;;;;;;21.00;10.10;;;0.70;99.90;;;;;;5075872;28;20212;-45
2020/12/04 05:34:45;;;;;;;18.50;9.53;;;0.70;99.90;;;;;;5094798;28;20178;-42
2020/12/04 05:37:11;;;;;;;21.63;10.10;;;0.70;99.90;;;;;;5084330;28;20272;-49
2020/12/04 05:39:47;;;;;;;18.77;8.83;;;0.70;99.90;;;;;;5059989;28;20183;-42
2020/12/04 05:42:33;;;;;;;18.97;10.57;;;0.70;99.90;;;;;;5063177;28;20598;-49
2020/12/04 05:44:59;;;;;;;17.97;8.80;;;0.80;99.90;;;;;;5063326;28;20173;-40
2020/12/04 05:47:37;;;;;;;20.83;9.80;;;0.80;99.90;;;;;;5051894;28;20212;-48
2020/12/04 05:50:05;;;;;;;21.53;10.63;;;0.80;99.90;;;;;;5057788;28;20199;-40
2020/12/04 05:52:33;;;;;;;23.33;10.13;;;0.80;99.90;;;;;;5052090;28;20289;-49
2020/12/04 05:55:00;;;;;;;17.63;9.73;;;0.80;99.90;;;;;;5061988;28;20701;-40
2020/12/04 05:57:28;;;;;;;18.27;8.97;;;0.80;99.90;;;;;;5061090;28;20651;-52
2020/12/04 05:59:53;;;;;;;20.53;11.70;;;0.80;99.90;;;;;;5072700;28;20200;-41
2020/12/04 06:02:19;;;;;;;19.40;11.17;;;0.80;99.90;;;;;;5056962;28;20193;-50
2020/12/04 06:04:45;;;;;;;17.40;10.30;;;0.80;99.90;;;;;;5088988;28;20210;-41
2020/12/04 06:07:20;;;;;;;20.30;11.17;;;0.80;99.90;;;;;;5071477;28;20204;-49
2020/12/04 06:09:46;;;;;;;21.73;10.73;;;0.80;99.90;;;;;;5071468;28;20205;-41
2020/12/04 06:12:11;;;;;;;21.27;11.30;;;0.80;99.90;;;;;;5063261;28;20204;-49
2020/12/04 06:14:37;;;;;;;23.87;11.13;;;0.80;99.90;;;;;;5059331;28;20165;-43
2020/12/04 06:17:03;;;;;;;21.47;11.43;;;0.80;99.90;;;;;;5073431;28;20185;-40
2020/12/04 06:19:35;;;;;;;21.90;9.93;;;0.80;99.90;;;;;;5074906;28;20198;-50
2020/12/04 06:22:05;;;;;;;20.37;12.30;;;0.80;99.90;;;;;;5068541;28;20216;-43
2020/12/04 06:24:32;;;;;;;22.83;10.87;;;0.80;99.90;;;;;;5056736;28;20193;-42
2020/12/04 06:26:57;;;;;;;22.63;11.70;;;0.80;99.90;;;;;;5059699;28;20216;-41
2020/12/04 06:29:23;;;;;;;20.20;10.33;;;0.80;99.90;;;;;;5060396;28;20176;-50
2020/12/04 06:31:49;;;;;;;19.37;10.70;;;0.80;99.90;;;;;;5061689;28;20806;-43
2020/12/04 06:34:15;;;;;;;27.47;11.17;;;0.80;99.90;;;;;;5065934;28;20184;-45
2020/12/04 06:36:41;;;;;;;17.90;10.80;;;0.80;99.90;;;;;;5083189;28;20207;-47
2020/12/04 06:39:07;;;;;;;19.20;11.23;;;0.80;99.90;;;;;;5063428;28;20190;-41
2020/12/04 06:41:45;;;;;;;25.27;12.20;;;0.80;99.90;;;;;;5055988;28;20198;-40
2020/12/04 06:44:19;;;;;;;20.40;11.63;;;0.80;99.90;;;;;;5071599;28;20246;-46
2020/12/04 06:46:47;;;;;;;23.03;10.00;;;0.80;99.90;;;;;;5061522;28;20936;-41
2020/12/04 06:49:35;;;;;;;22.20;12.00;;;0.80;99.90;;;;;;5064796;28;20579;-51
2020/12/04 06:52:08;;;;;;;20.43;10.80;;;0.80;99.90;;;;;;5100145;28;20249;-41
2020/12/04 06:54:38;;;;;;;25.57;12.50;;;0.80;99.90;;;;;;5060178;28;20199;-40
2020/12/04 06:57:03;;;;;;;23.00;12.17;;;0.80;99.90;;;;;;5068861;28;20195;-43
2020/12/04 06:59:34;;;;;;;24.10;12.50;;;0.80;99.90;;;;;;5061196;28;20182;-48
2020/12/04 07:02:10;;;;;;;23.73;12.50;;;0.80;99.90;;;;;;5066570;28;20212;-45
2020/12/04 07:04:41;;;;;;;27.57;13.73;;;0.80;99.90;;;;;;5062737;28;20180;-45
2020/12/04 07:07:13;;;;;;;22.77;11.60;;;0.80;99.90;;;;;;5069679;28;20211;-41
2020/12/04 07:09:51;;;;;;;28.53;13.23;;;0.80;99.90;;;;;;5059448;28;20263;-43
2020/12/04 07:12:17;;;;;;;22.33;12.60;;;0.80;99.90;;;;;;5058153;28;20569;-43
2020/12/04 07:14:51;;;;;;;24.60;11.77;;;0.80;99.90;;;;;;5064008;28;20917;-42
2020/12/04 07:17:21;;;;;;;26.13;13.70;;;0.80;99.90;;;;;;5080665;28;20187;-40
2020/12/04 07:19:48;;;;;;;22.57;12.00;;;0.80;99.90;;;;;;5090026;28;20187;-46
2020/12/04 07:22:15;;;;;;;28.87;13.13;;;0.80;99.90;;;;;;5071853;28;20231;-41
2020/12/04 07:24:41;;;;;;;21.33;12.47;;;0.80;99.90;;;;;;5078497;28;20191;-45
2020/12/04 07:27:07;;;;;;;26.47;13.80;;;0.70;99.90;;;;;;5064323;28;20209;-44
2020/12/04 07:29:37;;;;;;;26.67;12.57;;;0.70;99.90;;;;;;5059562;28;20183;-44
2020/12/04 07:32:02;;;;;;;23.47;12.63;;;0.70;99.90;;;;;;5064529;28;20262;-40
2020/12/04 07:34:28;;;;;;;21.63;12.30;;;0.80;99.90;;;;;;5061739;28;20190;-45
2020/12/04 07:36:56;;;;;;;26.53;12.90;;;0.80;99.90;;;;;;5078395;28;20184;-43
2020/12/04 07:39:27;;;;;;;28.60;14.60;;;0.80;99.90;;;;;;5086621;28;20370;-43
2020/12/04 07:41:55;;;;;;;27.80;13.37;;;0.70;99.90;;;;;;5105835;28;20792;-46
2020/12/04 07:44:27;;;;;;;23.43;13.17;;;0.70;99.90;;;;;;5077970;28;20260;-44
2020/12/04 07:47:00;;;;;;;25.17;13.13;;;0.70;99.90;;;;;;5085596;28;20693;-44
2020/12/04 07:49:26;;;;;;;27.73;13.13;;;0.80;99.90;;;;;;5082178;28;20179;-45
2020/12/04 07:51:52;;;;;;;24.93;12.10;;;0.80;99.90;;;;;;5079829;28;20214;-44
2020/12/04 07:54:22;;;;;;;25.23;13.00;;;0.80;99.90;;;;;;5069144;28;20689;-41
2020/12/04 07:56:53;;;;;;;26.37;13.97;;;0.80;99.90;;;;;;5085032;28;20180;-43
2020/12/04 07:59:27;;;;;;;23.97;13.17;;;0.80;99.90;;;;;;5063162;28;20184;-42
2020/12/04 08:01:53;;;;;;;25.13;12.87;;;0.80;99.90;;;;;;5064348;28;20201;-44
2020/12/04 08:04:19;;;;;;;24.03;12.37;;;0.80;99.90;;;;;;5065759;28;20187;-44
2020/12/04 08:06:48;;;;;;;24.27;13.13;;;0.80;99.90;;;;;;5084980;28;20232;-44
2020/12/04 08:09:18;;;;;;;23.07;11.73;;;0.80;99.90;;;;;;5061098;28;20278;-40
2020/12/04 08:11:51;;;;;;;27.80;14.33;;;0.80;99.90;;;;;;5081280;28;20272;-42
2020/12/04 08:14:29;;;;;;;23.93;12.10;;;0.80;99.90;;;;;;5057183;28;20176;-40
2020/12/04 08:17:00;;;;;;;23.93;11.93;;;0.80;99.90;;;;;;5071646;28;20195;-42
2020/12/04 08:19:28;;;;;;;23.37;12.30;;;0.90;99.90;;;;;;5060768;28;20237;-45
2020/12/04 08:21:58;;;;;;;23.57;12.73;;;0.90;99.90;;;;;;5083459;28;20311;-41
2020/12/04 08:24:32;;;;;;;27.37;11.80;;;0.90;99.90;;;;;;5067834;28;20184;-42
2020/12/04 08:27:00;;;;;;;21.27;12.27;;;0.90;99.90;;;;;;5068447;28;20572;-42
2020/12/04 08:29:25;;;;;;;20.60;12.07;;;0.90;99.90;;;;;;5067147;28;20191;-41
2020/12/04 08:32:10;;;;;;;28.27;13.77;;;0.90;99.90;;;;;;5064318;28;20212;-40
2020/12/04 08:34:37;;;;;;;21.13;12.17;;;0.90;99.90;;;;;;5058721;28;20206;-41
2020/12/04 08:37:08;;;;;;;28.93;13.60;;;0.90;99.90;;;;;;5080559;28;20191;-40
2020/12/04 08:39:36;;;;;;;26.27;12.50;;;1.00;99.90;;;;;;5073831;28;20687;-42
2020/12/04 08:42:20;;;;;;;25.47;13.13;;;1.00;99.90;;;;;;5056673;28;20200;-44
2020/12/04 08:44:59;;;;;;;26.07;12.57;;;1.00;99.90;;;;;;5064205;28;20315;-49
2020/12/04 08:47:26;;;;;;;25.37;12.80;;;1.00;99.90;;;;;;5065291;28;20216;-42
2020/12/04 08:49:54;;;;;;;25.73;12.73;;;1.00;99.90;;;;;;5072592;28;20180;-48
2020/12/04 08:52:41;;;;;;;22.90;12.63;;;1.00;99.90;;;;;;5068579;28;20267;-42
2020/12/04 08:55:15;;;;;;;22.97;12.13;;;1.10;99.90;;;;;;5062207;28;20311;-44
2020/12/04 08:57:42;;;;;;;22.90;12.47;;;1.10;99.90;;;;;;5074292;28;20648;-48
2020/12/04 09:00:10;;;;;;;25.53;12.57;;;1.10;99.90;;;;;;5074119;28;20179;-44
2020/12/04 09:02:35;;;;;;;20.03;12.00;;;1.10;99.90;;;;;;5063521;28;20212;-48
2020/12/04 09:05:02;;;;;;;21.97;11.70;;;1.20;99.90;;;;;;5072326;28;20874;-45
2020/12/04 09:07:28;;;;;;;24.87;11.83;;;1.20;99.90;;;;;;5073934;28;20208;-42
2020/12/04 09:09:54;;;;;;;23.53;12.70;;;1.20;99.90;;;;;;5069531;28;20183;-44
2020/12/04 09:12:21;;;;;;;20.53;11.70;;;1.20;99.90;;;;;;5080442;28;20200;-47
2020/12/04 09:14:48;;;;;;;22.50;12.20;;;1.20;99.90;;;;;;5082414;28;20666;-42
2020/12/04 09:17:14;;;;;;;23.00;13.10;;;1.20;99.90;;;;;;5059445;28;20355;-45
2020/12/04 09:19:39;;;;;;;23.37;11.73;;;1.30;99.90;;;;;;5083967;28;20678;-46
2020/12/04 09:22:05;;;;;;;22.83;12.07;;;1.30;99.90;;;;;;5080315;28;20234;-47
2020/12/04 09:24:30;;;;;;;19.90;11.53;;;1.30;99.90;;;;;;5081959;28;20193;-42
2020/12/04 09:26:56;;;;;;;25.03;13.50;;;1.30;99.90;;;;;;5075764;28;20216;-43
2020/12/04 09:29:21;;;;;;;22.50;12.17;;;1.30;99.90;;;;;;5104283;28;20202;-46
2020/12/04 09:31:47;;;;;;;24.93;12.00;;;1.30;99.90;;;;;;5100758;28;20556;-44
2020/12/04 09:34:12;;;;;;;25.30;12.97;;;1.30;99.90;;;;;;5071525;28;20888;-47
2020/12/04 09:36:38;;;;;;;23.47;11.47;;;1.30;99.90;;;;;;5074661;28;20194;-45
2020/12/04 09:39:04;;;;;;;22.60;12.70;;;1.40;99.90;;;;;;5087655;28;20924;-47
2020/12/04 09:41:29;;;;;;;22.70;12.53;;;1.40;99.90;;;;;;5071665;28;20768;-47
2020/12/04 09:43:55;;;;;;;22.87;12.07;;;1.40;99.90;;;;;;5065627;28;20184;-45
2020/12/04 09:46:20;;;;;;;21.27;12.13;;;1.40;99.90;;;;;;5082774;28;20206;-43
2020/12/04 09:48:46;;;;;;;25.17;12.50;;;1.40;99.90;;;;;;5074338;28;20204;-44
2020/12/04 09:51:11;;;;;;;24.87;11.33;;;1.50;99.90;;;;;;5081443;28;20198;-46
2020/12/04 09:53:37;;;;;;;22.13;12.17;;;1.50;99.90;;;;;;5082360;28;20267;-49
2020/12/04 09:56:02;;;;;;;30.67;12.27;;;1.50;99.90;;;;;;5076494;28;20196;-49
2020/12/04 09:58:28;;;;;;;24.90;13.63;;;1.50;99.90;;;;;;5070929;28;20232;-47
2020/12/04 10:00:53;;;;;;;26.17;12.70;;;1.60;99.90;;;;;;5080338;28;20179;-44
2020/12/04 10:03:19;;;;;;;23.07;12.23;;;1.60;99.90;;;;;;5066537;28;20674;-46
2020/12/04 10:05:45;;;;;;;26.87;13.23;;;1.60;99.90;;;;;;5064948;28;20220;-43
2020/12/04 10:08:10;;;;;;;22.37;11.53;;;1.60;99.90;;;;;;5076865;28;20178;-44
2020/12/04 10:10:36;;;;;;;24.90;12.73;;;1.60;99.90;;;;;;5066820;28;20200;-43
2020/12/04 10:13:01;;;;;;;25.63;12.60;;;1.70;99.90;;;;;;5066889;28;20207;-46
2020/12/04 10:15:27;;;;;;;27.10;11.83;;;1.70;99.90;;;;;;5083326;28;20172;-46
2020/12/04 10:17:52;;;;;;;21.67;12.13;;;1.70;99.90;;;;;;5080569;28;20190;-43
2020/12/04 10:20:18;;;;;;;25.57;13.23;;;1.70;99.90;;;;;;5074316;28;20192;-44
2020/12/04 10:22:43;;;;;;;25.10;12.77;;;1.80;99.90;;;;;;5075025;28;20214;-41
2020/12/04 10:25:08;;;;;;;27.20;12.73;;;1.80;99.90;;;;;;5075199;28;20193;-43
2020/12/04 10:27:34;;;;;;;22.43;12.17;;;1.80;99.90;;;;;;5081482;28;20579;-44
2020/12/04 10:30:00;;;;;;;24.73;12.47;;;1.80;99.90;;;;;;5068543;28;20921;-45
2020/12/04 10:32:25;;;;;;;27.93;12.03;;;1.90;99.90;;;;;;5072408;28;20198;-44
2020/12/04 10:34:50;;;;;;;24.07;12.47;;;1.90;99.90;;;;;;5060138;28;20217;-44
2020/12/04 10:37:16;;;;;;;25.00;12.20;;;1.90;99.90;;;;;;5081163;28;20175;-42
2020/12/04 10:39:41;;;;;;;24.50;11.97;;;1.90;99.90;;;;;;5082552;28;20759;-44
2020/12/04 10:42:07;;;;;;;23.67;12.40;;;1.90;99.90;;;;;;5078168;28;20281;-46
2020/12/04 10:44:33;;;;;;;22.97;12.33;;;1.90;99.90;;;;;;5069480;28;20277;-46
2020/12/04 10:46:59;;;;;;;24.50;12.93;;;1.90;99.90;;;;;;5082122;28;20212;-49
2020/12/04 10:49:25;;;;;;;22.70;11.83;;;1.90;99.90;;;;;;5062847;28;20186;-47
2020/12/04 10:51:55;;;;;;;23.10;11.80;;;1.90;99.90;;;;;;5067710;28;20573;-47
2020/12/04 10:54:21;;;;;;;22.93;12.83;;;2.00;99.90;;;;;;5085966;28;20192;-49
2020/12/04 10:56:46;;;;;;;23.70;12.87;;;2.00;99.90;;;;;;5075539;28;20194;-45
2020/12/04 10:59:12;;;;;;;20.67;11.43;;;2.00;99.90;;;;;;5064346;28;20181;-47
2020/12/04 11:01:43;;;;;;;20.47;11.77;;;2.00;99.90;;;;;;5071877;28;20240;-46
2020/12/04 11:06:55;;;;;;;21.13;12.07;;;2.00;99.90;;;;;;5060393;28;20224;-45
2020/12/04 11:09:20;;;;;;;25.70;13.67;;;2.00;99.90;;;;;;5065973;28;20273;-44
2020/12/04 11:11:46;;;;;;;27.03;12.97;;;2.10;99.90;;;;;;5074204;28;20277;-44
2020/12/04 11:14:12;;;;;;;23.93;12.10;;;2.10;99.90;;;;;;5073670;28;20185;-44
2020/12/04 11:16:41;;;;;;;22.93;11.70;;;2.10;99.90;;;;;;5056948;28;20543;-46
2020/12/04 11:19:06;;;;;;;24.73;12.13;;;2.20;99.90;;;;;;5062463;28;20275;-46
2020/12/04 11:21:32;;;;;;;25.13;11.63;;;2.20;99.90;;;;;;5061673;28;20646;-43
2020/12/04 11:23:57;;;;;;;23.03;11.50;;;2.20;99.90;;;;;;5063342;28;20261;-43
2020/12/04 11:26:23;;;;;;;25.00;12.90;;;2.30;99.90;;;;;;5077704;28;20205;-51
2020/12/04 11:28:49;;;;;;;23.60;12.10;;;2.30;99.90;;;;;;5076707;28;20187;-43
2020/12/04 11:31:14;;;;;;;24.13;12.60;;;2.30;99.90;;;;;;5085545;28;20176;-44
2020/12/04 11:33:40;;;;;;;26.90;13.00;;;2.40;99.90;;;;;;5073422;28;20196;-42
2020/12/04 11:36:05;;;;;;;26.50;13.17;;;2.40;99.90;;;;;;5082743;28;20201;-44
2020/12/04 11:38:31;;;;;;;24.73;13.10;;;2.40;99.90;;;;;;5093281;28;20178;-47
2020/12/04 11:40:56;;;;;;;24.57;12.93;;;2.40;99.90;;;;;;5089853;28;20173;-50
2020/12/04 11:43:22;;;;;;;22.17;13.17;;;2.40;99.90;;;;;;5094256;28;20356;-46
2020/12/04 11:45:47;;;;;;;24.40;13.10;;;2.50;99.90;;;;;;5094611;28;20209;-48
2020/12/04 11:48:13;;;;;;;24.83;13.17;;;2.50;99.90;;;;;;5076119;28;20355;-43
2020/12/04 11:50:38;;;;;;;26.03;12.73;;;2.60;99.90;;;;;;5093359;28;20506;-49
2020/12/04 11:53:04;;;;;;;23.60;13.97;;;2.60;99.90;;;;;;5074952;28;20201;-42
2020/12/04 11:55:30;;;;;;;24.10;12.27;;;2.70;99.90;;;;;;5080535;28;20255;-48
2020/12/04 11:57:55;;;;;;;29.20;12.13;;;2.70;99.90;;;;;;5069682;28;20194;-49
2020/12/04 12:00:21;;;;;;;26.70;13.27;;;2.80;99.90;;;;;;5065461;28;20728;-43
2020/12/04 12:02:47;;;;;;;24.20;12.73;;;2.80;99.90;;;;;;5059038;28;20287;-48
2020/12/04 12:05:12;;;;;;;34.07;14.00;;;2.90;99.90;;;;;;5068902;28;20892;-46
2020/12/04 12:07:38;;;;;;;24.40;12.60;;;2.90;99.90;;;;;;5066185;28;20210;-49
2020/12/04 12:10:04;;;;;;;24.10;12.57;;;3.00;99.90;;;;;;5056041;28;20189;-43
2020/12/04 12:12:30;;;;;;;23.20;12.60;;;3.00;99.90;;;;;;5064618;28;20279;-42
2020/12/04 12:14:55;;;;;;;24.33;12.70;;;3.10;99.90;;;;;;5076427;28;20189;-48
2020/12/04 12:17:21;;;;;;;23.67;12.43;;;3.10;99.90;;;;;;5084409;28;20186;-42
2020/12/04 12:19:46;;;;;;;19.33;11.47;;;3.10;99.90;;;;;;5072244;28;20246;-43
2020/12/04 12:22:12;;;;;;;21.93;11.63;;;3.10;99.90;;;;;;5083016;28;20873;-47
2020/12/04 12:24:42;;;;;;;24.40;12.47;;;3.20;99.90;;;;;;5072507;28;20206;-44
2020/12/04 12:27:09;;;;;;;22.67;12.33;;;3.20;99.90;;;;;;5060674;28;20356;-44
2020/12/04 12:29:35;;;;;;;22.33;12.37;;;3.20;99.90;;;;;;5064625;28;20922;-46
2020/12/04 12:32:01;;;;;;;20.07;11.50;;;3.20;99.90;;;;;;5060484;28;20187;-49
2020/12/04 12:35:00;;;;;;;18.93;11.33;;;3.20;99.90;;;;;;5063932;28;20188;-44
2020/12/04 12:37:13;;;;;;;23.40;13.13;;;3.20;99.90;;;;;;5102876;28;20183;-45
2020/12/04 12:39:39;;;;;;;23.60;12.43;;;3.20;99.90;;;;;;5104956;28;20211;-53
2020/12/04 12:42:10;;;;;;;22.37;11.93;;;3.20;99.90;;;;;;5056075;28;20229;-46